sensor_id;sensor_type;location;lat;lon;timestamp;temperature;humidity
40676;DHT22;26359;48.750;9.314;2023-04-01T00:01:04;8.40;99.90
40676;DHT22;26359;48.750;9.314;2023-04-01T00:03:30;8.40;99.90
40676;DHT22;26359;48.750;9.314;2023-04-01T00:05:57;8.40;99.90
40676;DHT22;26359;48.750;9.314;2023-04-01T00:08:24;8.40;99.90
40676;DHT22;26359;48.750;9.314;2023-04-01T00:10:50;8.50;99.90
40676;DHT22;26359;48.750;9.314;2023-04-01T00:13:16;8.50;99.90
40676;DHT22;26359;48.750;9.314;2023-04-01T00:15:42;8.50;99.90
40676;DHT22;26359;48.750;9.314;2023-04-01T00:18:07;8.50;99.90
40676;DHT22;26359;48.750;9.314;2023-04-01T00:20:34;8.50;99.90
40676;DHT22;26359;48.750;9.314;2023-04-01T00:23:00;8.50;99.90
40676;DHT22;26359;48.750;9.314;2023-04-01T00:25:25;8.60;99.90
40676;DHT22;26359;48.750;9.314;2023-04-01T00:27:51;8.50;99.90
40676;DHT22;26359;48.750;9.314;2023-04-01T00:30:17;8.50;99.90
40676;DHT22;26359;48.750;9.314;2023-04-01T00:32:43;8.50;99.90
40676;DHT22;26359;48.750;9.314;2023-04-01T00:35:08;8.50;99.90
40676;DHT22;26359;48.750;9.314;2023-04-01T00:37:37;8.50;99.90
40676;DHT22;26359;48.750;9.314;2023-04-01T00:40:05;8.50;99.90
40676;DHT22;26359;48.750;9.314;2023-04-01T00:42:31;8.50;99.90
40676;DHT22;26359;48.750;9.314;2023-04-01T00:44:57;8.50;99.90
40676;DHT22;26359;48.750;9.314;2023-04-01T00:47:24;8.50;99.90
40676;DHT22;26359;48.750;9.314;2023-04-01T00:49:53;8.50;99.90
40676;DHT22;26359;48.750;9.314;2023-04-01T00:52:22;8.50;99.90
40676;DHT22;26359;48.750;9.314;2023-04-01T00:54:54;8.50;99.90
40676;DHT22;26359;48.750;9.314;2023-04-01T00:57:29;8.50;99.90
40676;DHT22;26359;48.750;9.314;2023-04-01T00:59:56;8.50;99.90
40676;DHT22;26359;48.750;9.314;2023-04-01T01:02:22;8.50;99.90
40676;DHT22;26359;48.750;9.314;2023-04-01T01:04:48;8.50;99.90
40676;DHT22;26359;48.750;9.314;2023-04-01T01:07:26;8.50;99.90
40676;DHT22;26359;48.750;9.314;2023-04-01T01:10:19;8.50;99.90
40676;DHT22;26359;48.750;9.314;2023-04-01T01:16:01;8.50;99.90
40676;DHT22;26359;48.750;9.314;2023-04-01T01:18:53;8.50;99.90
40676;DHT22;26359;48.750;9.314;2023-04-01T01:24:30;8.50;99.90
40676;DHT22;26359;48.750;9.314;2023-04-01T01:27:11;8.50;99.90
40676;DHT22;26359;48.750;9.314;2023-04-01T01:35:46;8.50;99.90
40676;DHT22;26359;48.750;9.314;2023-04-01T01:38:16;8.50;99.90
40676;DHT22;26359;48.750;9.314;2023-04-01T01:40:45;8.40;99.90
40676;DHT22;26359;48.750;9.314;2023-04-01T01:43:15;8.50;99.90
40676;DHT22;26359;48.750;9.314;2023-04-01T01:45:46;8.40;99.90
40676;DHT22;26359;48.750;9.314;2023-04-01T01:48:12;8.50;99.90
40676;DHT22;26359;48.750;9.314;2023-04-01T01:50:40;8.50;99.90
40676;DHT22;26359;48.750;9.314;2023-04-01T01:53:09;8.50;99.90
40676;DHT22;26359;48.750;9.314;2023-04-01T01:55:38;8.40;99.90
40676;DHT22;26359;48.750;9.314;2023-04-01T02:00:50;8.40;99.90
40676;DHT22;26359;48.750;9.314;2023-04-01T02:03:17;8.30;99.90
40676;DHT22;26359;48.750;9.314;2023-04-01T02:05:45;8.30;99.90
40676;DHT22;26359;48.750;9.314;2023-04-01T02:08:17;8.30;99.90
40676;DHT22;26359;48.750;9.314;2023-04-01T02:10:59;8.20;99.90
40676;DHT22;26359;48.750;9.314;2023-04-01T02:13:31;8.30;99.90
40676;DHT22;26359;48.750;9.314;2023-04-01T02:16:02;8.30;99.90
40676;DHT22;26359;48.750;9.314;2023-04-01T02:18:30;8.30;99.90
40676;DHT22;26359;48.750;9.314;2023-04-01T02:20:59;8.30;99.90
40676;DHT22;26359;48.750;9.314;2023-04-01T02:23:26;8.30;99.90
40676;DHT22;26359;48.750;9.314;2023-04-01T02:25:52;8.30;99.90
40676;DHT22;26359;48.750;9.314;2023-04-01T02:28:19;8.20;99.90
40676;DHT22;26359;48.750;9.314;2023-04-01T02:30:47;8.20;99.90
40676;DHT22;26359;48.750;9.314;2023-04-01T02:33:13;8.20;99.90
40676;DHT22;26359;48.750;9.314;2023-04-01T02:35:39;8.20;99.90
40676;DHT22;26359;48.750;9.314;2023-04-01T02:38:05;8.10;99.90
40676;DHT22;26359;48.750;9.314;2023-04-01T02:40:47;8.10;99.90
40676;DHT22;26359;48.750;9.314;2023-04-01T02:43:14;8.10;99.90
40676;DHT22;26359;48.750;9.314;2023-04-01T02:45:39;8.10;99.90
40676;DHT22;26359;48.750;9.314;2023-04-01T02:48:05;8.10;99.90
40676;DHT22;26359;48.750;9.314;2023-04-01T02:50:31;8.10;99.90
40676;DHT22;26359;48.750;9.314;2023-04-01T02:52:56;8.10;99.90
40676;DHT22;26359;48.750;9.314;2023-04-01T02:55:22;8.10;99.90
40676;DHT22;26359;48.750;9.314;2023-04-01T02:57:48;8.00;99.90
40676;DHT22;26359;48.750;9.314;2023-04-01T03:00:14;8.10;99.90
40676;DHT22;26359;48.750;9.314;2023-04-01T03:02:39;8.10;99.90
40676;DHT22;26359;48.750;9.314;2023-04-01T03:05:05;8.10;99.90
40676;DHT22;26359;48.750;9.314;2023-04-01T03:07:31;8.10;99.90
40676;DHT22;26359;48.750;9.314;2023-04-01T03:09:57;8.10;99.90
40676;DHT22;26359;48.750;9.314;2023-04-01T03:12:22;8.00;99.90
40676;DHT22;26359;48.750;9.314;2023-04-01T03:14:48;8.10;99.90
40676;DHT22;26359;48.750;9.314;2023-04-01T03:17:13;8.00;99.90
40676;DHT22;26359;48.750;9.314;2023-04-01T03:19:39;8.00;99.90
40676;DHT22;26359;48.750;9.314;2023-04-01T03:22:04;8.00;99.90
40676;DHT22;26359;48.750;9.314;2023-04-01T03:24:30;8.00;99.90
40676;DHT22;26359;48.750;9.314;2023-04-01T03:26:55;7.90;99.90
40676;DHT22;26359;48.750;9.314;2023-04-01T03:29:21;8.00;99.90
40676;DHT22;26359;48.750;9.314;2023-04-01T03:31:46;8.00;99.90
40676;DHT22;26359;48.750;9.314;2023-04-01T03:34:12;8.00;99.90
40676;DHT22;26359;48.750;9.314;2023-04-01T03:36:37;7.90;99.90
40676;DHT22;26359;48.750;9.314;2023-04-01T03:39:03;7.90;99.90
40676;DHT22;26359;48.750;9.314;2023-04-01T03:41:29;7.90;99.90
40676;DHT22;26359;48.750;9.314;2023-04-01T03:43:55;7.90;99.90
40676;DHT22;26359;48.750;9.314;2023-04-01T03:46:22;8.00;99.90
40676;DHT22;26359;48.750;9.314;2023-04-01T03:48:48;8.00;99.90
40676;DHT22;26359;48.750;9.314;2023-04-01T03:51:13;8.00;99.90
40676;DHT22;26359;48.750;9.314;2023-04-01T03:53:39;7.90;99.90
40676;DHT22;26359;48.750;9.314;2023-04-01T03:56:06;7.90;99.90
40676;DHT22;26359;48.750;9.314;2023-04-01T03:58:32;7.90;99.90
40676;DHT22;26359;48.750;9.314;2023-04-01T04:00:57;7.90;99.90
40676;DHT22;26359;48.750;9.314;2023-04-01T04:03:23;8.00;99.90
40676;DHT22;26359;48.750;9.314;2023-04-01T04:05:49;8.00;99.90
40676;DHT22;26359;48.750;9.314;2023-04-01T04:08:15;7.90;99.90
40676;DHT22;26359;48.750;9.314;2023-04-01T04:10:41;7.90;99.90
40676;DHT22;26359;48.750;9.314;2023-04-01T04:13:08;7.80;99.90
40676;DHT22;26359;48.750;9.314;2023-04-01T04:15:33;7.80;99.90
40676;DHT22;26359;48.750;9.314;2023-04-01T04:17:59;7.70;99.90
40676;DHT22;26359;48.750;9.314;2023-04-01T04:20:25;7.70;99.90
40676;DHT22;26359;48.750;9.314;2023-04-01T04:22:50;7.70;99.90
40676;DHT22;26359;48.750;9.314;2023-04-01T04:25:16;7.60;99.90
40676;DHT22;26359;48.750;9.314;2023-04-01T04:27:42;7.60;99.90
40676;DHT22;26359;48.750;9.314;2023-04-01T04:30:09;7.60;99.90
40676;DHT22;26359;48.750;9.314;2023-04-01T04:32:35;7.60;99.90
40676;DHT22;26359;48.750;9.314;2023-04-01T04:35:00;7.60;99.90
40676;DHT22;26359;48.750;9.314;2023-04-01T04:37:26;7.60;99.90
40676;DHT22;26359;48.750;9.314;2023-04-01T04:39:52;7.60;99.90
40676;DHT22;26359;48.750;9.314;2023-04-01T04:42:18;7.60;99.90
40676;DHT22;26359;48.750;9.314;2023-04-01T04:44:43;7.60;99.90
40676;DHT22;26359;48.750;9.314;2023-04-01T04:47:09;7.50;99.90
40676;DHT22;26359;48.750;9.314;2023-04-01T04:49:34;7.50;99.90
40676;DHT22;26359;48.750;9.314;2023-04-01T04:52:00;7.50;99.90
40676;DHT22;26359;48.750;9.314;2023-04-01T04:54:25;7.40;99.90
40676;DHT22;26359;48.750;9.314;2023-04-01T04:56:52;7.40;99.90
40676;DHT22;26359;48.750;9.314;2023-04-01T04:59:18;7.50;99.90
40676;DHT22;26359;48.750;9.314;2023-04-01T05:01:43;7.50;99.90
40676;DHT22;26359;48.750;9.314;2023-04-01T05:04:09;7.50;99.90
40676;DHT22;26359;48.750;9.314;2023-04-01T05:06:34;7.50;99.90
40676;DHT22;26359;48.750;9.314;2023-04-01T05:09:00;7.50;99.90
40676;DHT22;26359;48.750;9.314;2023-04-01T05:11:25;7.50;99.90
40676;DHT22;26359;48.750;9.314;2023-04-01T05:13:51;7.60;99.90
40676;DHT22;26359;48.750;9.314;2023-04-01T05:16:19;7.60;99.90
40676;DHT22;26359;48.750;9.314;2023-04-01T05:18:46;7.70;99.90
40676;DHT22;26359;48.750;9.314;2023-04-01T05:21:13;7.60;99.90
40676;DHT22;26359;48.750;9.314;2023-04-01T05:23:40;7.60;99.90
40676;DHT22;26359;48.750;9.314;2023-04-01T05:26:08;7.70;99.90
40676;DHT22;26359;48.750;9.314;2023-04-01T05:28:34;7.80;99.90
40676;DHT22;26359;48.750;9.314;2023-04-01T05:31:00;7.80;99.90
40676;DHT22;26359;48.750;9.314;2023-04-01T05:33:27;7.80;99.90
40676;DHT22;26359;48.750;9.314;2023-04-01T05:35:53;7.90;99.90
40676;DHT22;26359;48.750;9.314;2023-04-01T05:38:18;7.90;99.90
40676;DHT22;26359;48.750;9.314;2023-04-01T05:40:44;7.90;99.90
40676;DHT22;26359;48.750;9.314;2023-04-01T05:43:10;7.90;99.90
40676;DHT22;26359;48.750;9.314;2023-04-01T05:45:35;7.90;99.90
40676;DHT22;26359;48.750;9.314;2023-04-01T05:48:01;8.00;99.90
40676;DHT22;26359;48.750;9.314;2023-04-01T05:50:26;8.10;99.90
40676;DHT22;26359;48.750;9.314;2023-04-01T05:52:53;8.00;99.90
40676;DHT22;26359;48.750;9.314;2023-04-01T05:55:18;8.10;99.90
40676;DHT22;26359;48.750;9.314;2023-04-01T05:57:45;8.10;99.90
40676;DHT22;26359;48.750;9.314;2023-04-01T06:00:12;8.20;99.90
40676;DHT22;26359;48.750;9.314;2023-04-01T06:02:38;8.20;99.90
40676;DHT22;26359;48.750;9.314;2023-04-01T06:05:27;8.20;99.90
40676;DHT22;26359;48.750;9.314;2023-04-01T06:08:05;8.30;99.90
40676;DHT22;26359;48.750;9.314;2023-04-01T06:22:15;8.50;99.90
40676;DHT22;26359;48.750;9.314;2023-04-01T06:38:12;8.70;99.90
40676;DHT22;26359;48.750;9.314;2023-04-01T06:41:01;8.80;99.90
40676;DHT22;26359;48.750;9.314;2023-04-01T06:43:46;8.90;99.90
40676;DHT22;26359;48.750;9.314;2023-04-01T06:46:32;8.90;99.90
40676;DHT22;26359;48.750;9.314;2023-04-01T06:49:43;8.90;99.90
40676;DHT22;26359;48.750;9.314;2023-04-01T06:54:49;8.90;99.90
40676;DHT22;26359;48.750;9.314;2023-04-01T06:57:34;8.90;99.90
40676;DHT22;26359;48.750;9.314;2023-04-01T07:00:04;8.90;99.90
40676;DHT22;26359;48.750;9.314;2023-04-01T07:02:41;8.90;99.90
40676;DHT22;26359;48.750;9.314;2023-04-01T07:05:11;8.80;99.90
40676;DHT22;26359;48.750;9.314;2023-04-01T07:07:45;8.90;99.90
40676;DHT22;26359;48.750;9.314;2023-04-01T07:10:17;8.90;99.90
40676;DHT22;26359;48.750;9.314;2023-04-01T07:12:53;8.90;99.90
40676;DHT22;26359;48.750;9.314;2023-04-01T07:15:26;9.00;99.90
40676;DHT22;26359;48.750;9.314;2023-04-01T07:18:02;9.00;99.90
40676;DHT22;26359;48.750;9.314;2023-04-01T07:20:35;9.10;99.90
40676;DHT22;26359;48.750;9.314;2023-04-01T07:23:10;9.20;99.90
40676;DHT22;26359;48.750;9.314;2023-04-01T07:25:44;9.20;99.90
40676;DHT22;26359;48.750;9.314;2023-04-01T07:28:15;9.30;99.90
40676;DHT22;26359;48.750;9.314;2023-04-01T07:33:44;9.20;99.90
40676;DHT22;26359;48.750;9.314;2023-04-01T07:38:57;9.30;99.90
40676;DHT22;26359;48.750;9.314;2023-04-01T07:44:16;9.30;99.90
40676;DHT22;26359;48.750;9.314;2023-04-01T07:52:08;9.40;99.90
40676;DHT22;26359;48.750;9.314;2023-04-01T07:54:52;9.30;99.90
40676;DHT22;26359;48.750;9.314;2023-04-01T07:57:45;9.40;99.90
40676;DHT22;26359;48.750;9.314;2023-04-01T08:03:08;9.40;99.90
40676;DHT22;26359;48.750;9.314;2023-04-01T08:05:47;9.50;99.90
40676;DHT22;26359;48.750;9.314;2023-04-01T08:14:29;9.40;99.90
40676;DHT22;26359;48.750;9.314;2023-04-01T08:17:13;9.40;99.90
40676;DHT22;26359;48.750;9.314;2023-04-01T08:19:45;9.50;99.90
40676;DHT22;26359;48.750;9.314;2023-04-01T08:22:43;9.50;99.90
40676;DHT22;26359;48.750;9.314;2023-04-01T08:25:17;9.60;99.90
40676;DHT22;26359;48.750;9.314;2023-04-01T08:27:48;9.70;99.90
40676;DHT22;26359;48.750;9.314;2023-04-01T08:33:29;9.60;99.90
40676;DHT22;26359;48.750;9.314;2023-04-01T08:36:03;9.60;99.90
40676;DHT22;26359;48.750;9.314;2023-04-01T08:38:54;9.70;99.90
40676;DHT22;26359;48.750;9.314;2023-04-01T08:52:36;9.60;99.90
40676;DHT22;26359;48.750;9.314;2023-04-01T09:03:10;9.30;99.90
40676;DHT22;26359;48.750;9.314;2023-04-01T09:08:42;8.90;99.90
40676;DHT22;26359;48.750;9.314;2023-04-01T09:14:40;8.70;99.90
40676;DHT22;26359;48.750;9.314;2023-04-01T09:20:50;8.70;99.90
40676;DHT22;26359;48.750;9.314;2023-04-01T09:27:15;8.90;99.90
40676;DHT22;26359;48.750;9.314;2023-04-01T09:40:31;9.30;99.90
40676;DHT22;26359;48.750;9.314;2023-04-01T09:48:50;9.50;99.90
40676;DHT22;26359;48.750;9.314;2023-04-01T09:51:37;9.40;99.90
40676;DHT22;26359;48.750;9.314;2023-04-01T09:54:19;9.40;99.90
40676;DHT22;26359;48.750;9.314;2023-04-01T10:03:01;9.40;99.90
40676;DHT22;26359;48.750;9.314;2023-04-01T10:08:49;9.20;99.90
40676;DHT22;26359;48.750;9.314;2023-04-01T10:14:20;9.20;99.90
40676;DHT22;26359;48.750;9.314;2023-04-01T10:17:19;9.20;99.90
40676;DHT22;26359;48.750;9.314;2023-04-01T10:20:00;9.20;99.90
40676;DHT22;26359;48.750;9.314;2023-04-01T10:22:50;9.30;99.90
40676;DHT22;26359;48.750;9.314;2023-04-01T10:25:34;9.30;99.90
40676;DHT22;26359;48.750;9.314;2023-04-01T10:28:19;9.30;99.90
40676;DHT22;26359;48.750;9.314;2023-04-01T10:30:54;9.40;99.90
40676;DHT22;26359;48.750;9.314;2023-04-01T10:33:35;9.50;99.90
40676;DHT22;26359;48.750;9.314;2023-04-01T11:04:57;10.10;99.90
40676;DHT22;26359;48.750;9.314;2023-04-01T11:10:39;10.00;99.90
40676;DHT22;26359;48.750;9.314;2023-04-01T11:33:23;10.20;99.90
40676;DHT22;26359;48.750;9.314;2023-04-01T11:36:06;10.30;99.90
40676;DHT22;26359;48.750;9.314;2023-04-01T11:44:18;10.40;99.90
40676;DHT22;26359;48.750;9.314;2023-04-01T11:47:44;10.50;99.90
40676;DHT22;26359;48.750;9.314;2023-04-01T11:52:33;10.60;99.90
40676;DHT22;26359;48.750;9.314;2023-04-01T11:55:19;10.60;99.90
40676;DHT22;26359;48.750;9.314;2023-04-01T11:58:19;10.60;99.90
40676;DHT22;26359;48.750;9.314;2023-04-01T12:11:51;10.20;99.90
40676;DHT22;26359;48.750;9.314;2023-04-01T12:14:30;10.20;99.90
40676;DHT22;26359;48.750;9.314;2023-04-01T12:17:31;10.20;99.90
40676;DHT22;26359;48.750;9.314;2023-04-01T12:20:33;10.20;99.90
40676;DHT22;26359;48.750;9.314;2023-04-01T12:34:39;10.30;99.90
40676;DHT22;26359;48.750;9.314;2023-04-01T12:39:59;10.30;99.90
40676;DHT22;26359;48.750;9.314;2023-04-01T12:48:06;10.60;99.90
40676;DHT22;26359;48.750;9.314;2023-04-01T12:50:41;10.80;99.90
40676;DHT22;26359;48.750;9.314;2023-04-01T12:53:31;10.80;99.90
40676;DHT22;26359;48.750;9.314;2023-04-01T12:56:15;10.90;99.90
40676;DHT22;26359;48.750;9.314;2023-04-01T13:02:00;11.30;99.90
40676;DHT22;26359;48.750;9.314;2023-04-01T13:07:42;11.20;99.90
40676;DHT22;26359;48.750;9.314;2023-04-01T13:10:50;11.20;99.90
40676;DHT22;26359;48.750;9.314;2023-04-01T13:13:31;11.30;99.90
40676;DHT22;26359;48.750;9.314;2023-04-01T13:16:29;11.40;99.90
40676;DHT22;26359;48.750;9.314;2023-04-01T13:19:19;11.40;99.90
40676;DHT22;26359;48.750;9.314;2023-04-01T13:21:51;11.30;99.90
40676;DHT22;26359;48.750;9.314;2023-04-01T13:24:44;11.30;99.90
40676;DHT22;26359;48.750;9.314;2023-04-01T13:27:26;11.20;99.90
40676;DHT22;26359;48.750;9.314;2023-04-01T13:35:48;11.00;99.90
40676;DHT22;26359;48.750;9.314;2023-04-01T13:38:38;11.00;99.90
40676;DHT22;26359;48.750;9.314;2023-04-01T13:44:15;10.90;99.90
40676;DHT22;26359;48.750;9.314;2023-04-01T13:52:42;11.20;99.90
40676;DHT22;26359;48.750;9.314;2023-04-01T13:55:48;11.40;99.90
40676;DHT22;26359;48.750;9.314;2023-04-01T13:58:31;11.30;99.90
40676;DHT22;26359;48.750;9.314;2023-04-01T14:14:54;11.20;99.90
40676;DHT22;26359;48.750;9.314;2023-04-01T14:20:21;11.30;99.90
40676;DHT22;26359;48.750;9.314;2023-04-01T14:25:55;11.30;99.90
40676;DHT22;26359;48.750;9.314;2023-04-01T14:43:20;11.20;99.90
40676;DHT22;26359;48.750;9.314;2023-04-01T14:46:06;11.30;99.90
40676;DHT22;26359;48.750;9.314;2023-04-01T14:48:39;11.20;99.90
40676;DHT22;26359;48.750;9.314;2023-04-01T14:51:22;11.10;99.90
40676;DHT22;26359;48.750;9.314;2023-04-01T14:56:42;11.00;99.90
40676;DHT22;26359;48.750;9.314;2023-04-01T14:59:29;10.90;99.90
40676;DHT22;26359;48.750;9.314;2023-04-01T15:02:03;10.70;99.90
40676;DHT22;26359;48.750;9.314;2023-04-01T15:04:44;10.80;99.90
40676;DHT22;26359;48.750;9.314;2023-04-01T15:07:45;10.80;99.90
40676;DHT22;26359;48.750;9.314;2023-04-01T15:21:24;10.80;99.90
40676;DHT22;26359;48.750;9.314;2023-04-01T15:24:04;10.80;99.90
40676;DHT22;26359;48.750;9.314;2023-04-01T15:26:38;10.80;99.90
40676;DHT22;26359;48.750;9.314;2023-04-01T15:31:50;10.70;99.90
40676;DHT22;26359;48.750;9.314;2023-04-01T15:39:59;10.70;99.90
40676;DHT22;26359;48.750;9.314;2023-04-01T15:42:38;10.70;99.90
40676;DHT22;26359;48.750;9.314;2023-04-01T15:47:39;10.70;99.90
40676;DHT22;26359;48.750;9.314;2023-04-01T15:52:54;10.60;99.90
40676;DHT22;26359;48.750;9.314;2023-04-01T15:55:38;10.60;99.90
40676;DHT22;26359;48.750;9.314;2023-04-01T16:00:57;10.60;99.90
40676;DHT22;26359;48.750;9.314;2023-04-01T16:03:33;10.70;99.90
40676;DHT22;26359;48.750;9.314;2023-04-01T16:11:58;10.60;99.90
40676;DHT22;26359;48.750;9.314;2023-04-01T16:14:28;10.60;99.90
40676;DHT22;26359;48.750;9.314;2023-04-01T16:19:33;10.50;99.90
40676;DHT22;26359;48.750;9.314;2023-04-01T16:27:32;10.40;99.90
40676;DHT22;26359;48.750;9.314;2023-04-01T16:30:40;10.40;99.90
40676;DHT22;26359;48.750;9.314;2023-04-01T16:33:31;10.40;99.90
40676;DHT22;26359;48.750;9.314;2023-04-01T16:39:37;10.50;99.90
40676;DHT22;26359;48.750;9.314;2023-04-01T16:41:41;10.40;99.90
40676;DHT22;26359;48.750;9.314;2023-04-01T16:44:24;10.40;99.90
40676;DHT22;26359;48.750;9.314;2023-04-01T16:46:56;10.40;99.90
40676;DHT22;26359;48.750;9.314;2023-04-01T16:49:47;10.40;99.90
40676;DHT22;26359;48.750;9.314;2023-04-01T16:55:54;10.30;99.90
40676;DHT22;26359;48.750;9.314;2023-04-01T16:58:40;10.40;99.90
40676;DHT22;26359;48.750;9.314;2023-04-01T17:01:08;10.40;99.90
40676;DHT22;26359;48.750;9.314;2023-04-01T17:03:45;10.40;99.90
40676;DHT22;26359;48.750;9.314;2023-04-01T17:15:19;10.40;99.90
40676;DHT22;26359;48.750;9.314;2023-04-01T17:20:39;10.40;99.90
40676;DHT22;26359;48.750;9.314;2023-04-01T17:23:29;10.40;99.90
40676;DHT22;26359;48.750;9.314;2023-04-01T17:28:54;10.40;99.90
40676;DHT22;26359;48.750;9.314;2023-04-01T17:36:54;10.40;99.90
40676;DHT22;26359;48.750;9.314;2023-04-01T17:42:46;10.40;99.90
40676;DHT22;26359;48.750;9.314;2023-04-01T17:45:27;10.40;99.90
40676;DHT22;26359;48.750;9.314;2023-04-01T17:53:42;10.30;99.90
40676;DHT22;26359;48.750;9.314;2023-04-01T17:59:47;10.30;99.90
40676;DHT22;26359;48.750;9.314;2023-04-01T18:07:46;10.30;99.90
40676;DHT22;26359;48.750;9.314;2023-04-01T18:13:22;10.30;99.90
40676;DHT22;26359;48.750;9.314;2023-04-01T18:26:28;10.30;99.90
40676;DHT22;26359;48.750;9.314;2023-04-01T18:28:58;10.30;99.90
40676;DHT22;26359;48.750;9.314;2023-04-01T18:31:31;10.20;99.90
40676;DHT22;26359;48.750;9.314;2023-04-01T18:34:30;10.20;99.90
40676;DHT22;26359;48.750;9.314;2023-04-01T18:37:19;10.10;99.90
40676;DHT22;26359;48.750;9.314;2023-04-01T18:39:56;10.10;99.90
40676;DHT22;26359;48.750;9.314;2023-04-01T18:42:41;10.00;99.90
40676;DHT22;26359;48.750;9.314;2023-04-01T18:45:28;10.00;99.90
40676;DHT22;26359;48.750;9.314;2023-04-01T18:48:30;9.90;99.90
40676;DHT22;26359;48.750;9.314;2023-04-01T18:51:03;9.80;99.90
40676;DHT22;26359;48.750;9.314;2023-04-01T18:53:55;9.70;99.90
40676;DHT22;26359;48.750;9.314;2023-04-01T18:56:29;9.70;99.90
40676;DHT22;26359;48.750;9.314;2023-04-01T19:04:50;9.50;99.90
40676;DHT22;26359;48.750;9.314;2023-04-01T19:09:52;9.40;99.90
40676;DHT22;26359;48.750;9.314;2023-04-01T19:20:41;9.30;99.90
40676;DHT22;26359;48.750;9.314;2023-04-01T19:23:37;9.20;99.90
40676;DHT22;26359;48.750;9.314;2023-04-01T19:26:34;9.20;99.90
40676;DHT22;26359;48.750;9.314;2023-04-01T19:32:00;9.10;99.90
40676;DHT22;26359;48.750;9.314;2023-04-01T19:34:52;9.10;99.90
40676;DHT22;26359;48.750;9.314;2023-04-01T19:37:50;9.10;99.90
40676;DHT22;26359;48.750;9.314;2023-04-01T19:40:32;9.00;99.90
40676;DHT22;26359;48.750;9.314;2023-04-01T19:43:13;9.00;99.90
40676;DHT22;26359;48.750;9.314;2023-04-01T19:59:39;9.00;99.90
40676;DHT22;26359;48.750;9.314;2023-04-01T20:04:42;9.00;99.90
40676;DHT22;26359;48.750;9.314;2023-04-01T20:07:31;9.10;99.90
40676;DHT22;26359;48.750;9.314;2023-04-01T20:10:20;9.00;99.90
40676;DHT22;26359;48.750;9.314;2023-04-01T20:15:39;9.00;99.90
40676;DHT22;26359;48.750;9.314;2023-04-01T20:18:16;8.90;99.90
40676;DHT22;26359;48.750;9.314;2023-04-01T20:20:57;9.00;99.90
40676;DHT22;26359;48.750;9.314;2023-04-01T20:23:45;9.00;99.90
40676;DHT22;26359;48.750;9.314;2023-04-01T20:26:20;8.90;99.90
40676;DHT22;26359;48.750;9.314;2023-04-01T20:31:34;8.90;99.90
40676;DHT22;26359;48.750;9.314;2023-04-01T20:34:30;8.90;99.90
40676;DHT22;26359;48.750;9.314;2023-04-01T20:45:35;8.90;99.90
40676;DHT22;26359;48.750;9.314;2023-04-01T20:48:15;8.90;99.90
40676;DHT22;26359;48.750;9.314;2023-04-01T20:50:51;8.80;99.90
40676;DHT22;26359;48.750;9.314;2023-04-01T20:53:36;8.80;99.90
40676;DHT22;26359;48.750;9.314;2023-04-01T20:56:29;8.80;99.90
40676;DHT22;26359;48.750;9.314;2023-04-01T21:08:02;8.70;99.90
40676;DHT22;26359;48.750;9.314;2023-04-01T21:16:10;8.60;99.90
40676;DHT22;26359;48.750;9.314;2023-04-01T21:21:30;8.70;99.90
40676;DHT22;26359;48.750;9.314;2023-04-01T21:40:39;8.60;99.90
40676;DHT22;26359;48.750;9.314;2023-04-01T21:46:32;8.70;99.90
40676;DHT22;26359;48.750;9.314;2023-04-01T21:52:00;8.70;99.90
40676;DHT22;26359;48.750;9.314;2023-04-01T22:05:55;8.70;99.90
40676;DHT22;26359;48.750;9.314;2023-04-01T22:14:49;8.60;99.90
40676;DHT22;26359;48.750;9.314;2023-04-01T22:16:59;8.60;99.90
40676;DHT22;26359;48.750;9.314;2023-04-01T22:19:58;8.60;99.90
40676;DHT22;26359;48.750;9.314;2023-04-01T22:23:10;8.60;99.90
40676;DHT22;26359;48.750;9.314;2023-04-01T22:28:29;8.60;99.90
40676;DHT22;26359;48.750;9.314;2023-04-01T22:31:02;8.60;99.90
40676;DHT22;26359;48.750;9.314;2023-04-01T22:34:05;8.60;99.90
40676;DHT22;26359;48.750;9.314;2023-04-01T22:36:40;8.70;99.90
40676;DHT22;26359;48.750;9.314;2023-04-01T22:44:51;8.60;99.90
40676;DHT22;26359;48.750;9.314;2023-04-01T22:47:26;8.70;99.90
40676;DHT22;26359;48.750;9.314;2023-04-01T22:50:07;8.70;99.90
40676;DHT22;26359;48.750;9.314;2023-04-01T22:52:44;8.80;99.90
40676;DHT22;26359;48.750;9.314;2023-04-01T22:55:21;8.80;99.90
40676;DHT22;26359;48.750;9.314;2023-04-01T22:58:00;8.80;99.90
40676;DHT22;26359;48.750;9.314;2023-04-01T23:00:36;8.80;99.90
40676;DHT22;26359;48.750;9.314;2023-04-01T23:03:11;8.80;99.90
40676;DHT22;26359;48.750;9.314;2023-04-01T23:06:33;8.80;99.90
40676;DHT22;26359;48.750;9.314;2023-04-01T23:09:23;8.80;99.90
40676;DHT22;26359;48.750;9.314;2023-04-01T23:12:05;8.70;99.90
40676;DHT22;26359;48.750;9.314;2023-04-01T23:14:39;8.70;99.90
40676;DHT22;26359;48.750;9.314;2023-04-01T23:20:38;8.70;99.90
40676;DHT22;26359;48.750;9.314;2023-04-01T23:23:26;8.70;99.90
40676;DHT22;26359;48.750;9.314;2023-04-01T23:26:17;8.70;99.90
40676;DHT22;26359;48.750;9.314;2023-04-01T23:28:53;8.70;99.90
40676;DHT22;26359;48.750;9.314;2023-04-01T23:31:29;8.70;99.90
40676;DHT22;26359;48.750;9.314;2023-04-01T23:34:01;8.60;99.90
40676;DHT22;26359;48.750;9.314;2023-04-01T23:36:27;8.50;99.90
40676;DHT22;26359;48.750;9.314;2023-04-01T23:38:54;8.50;99.90
40676;DHT22;26359;48.750;9.314;2023-04-01T23:41:28;8.50;99.90
40676;DHT22;26359;48.750;9.314;2023-04-01T23:44:15;8.50;99.90
40676;DHT22;26359;48.750;9.314;2023-04-01T23:46:42;8.40;99.90
40676;DHT22;26359;48.750;9.314;2023-04-01T23:49:21;8.50;99.90
40676;DHT22;26359;48.750;9.314;2023-04-01T23:52:00;8.40;99.90
40676;DHT22;26359;48.750;9.314;2023-04-01T23:54:34;8.40;99.90
40676;DHT22;26359;48.750;9.314;2023-04-01T23:57:04;8.40;99.90
40676;DHT22;26359;48.750;9.314;2023-04-01T23:59:34;8.30;99.90
